Time;durP1;ratioP1;P1;durP2;ratioP2;P2;SDS_P1;SDS_P2;PMS_P1;PMS_P2;Temp;Humidity;BMP_temperature;BMP_pressure;BME280_temperature;BME280_humidity;BME280_pressure;Samples;Min_cycle;Max_cycle;Signal;HPM_P1;HPM_P2
2021/01/10 00:02:18;;;;;;;39.47;16.13;;;3.60;99.90;;;;;;4904321;29;20019;-89
2021/01/10 00:04:44;;;;;;;31.25;15.68;;;3.70;99.90;;;;;;4904049;29;20027;-89
2021/01/10 00:07:10;;;;;;;32.90;15.20;;;3.70;99.90;;;;;;4922191;29;20091;-90
2021/01/10 00:09:35;;;;;;;33.55;15.77;;;3.50;99.90;;;;;;4923727;29;20036;-89
2021/01/10 00:12:01;;;;;;;26.67;13.32;;;3.50;99.90;;;;;;4923744;29;20115;-90
2021/01/10 00:14:31;;;;;;;23.60;13.15;;;3.60;99.90;;;;;;4928773;29;20060;-89
2021/01/10 00:16:57;;;;;;;24.45;12.60;;;3.70;99.90;;;;;;4926944;29;20500;-89
2021/01/10 00:19:22;;;;;;;32.00;13.57;;;3.70;99.90;;;;;;4929472;29;20057;-89
2021/01/10 00:21:48;;;;;;;28.65;12.57;;;3.70;99.90;;;;;;4939544;29;20028;-89
2021/01/10 00:24:14;;;;;;;23.73;12.98;;;3.60;99.90;;;;;;4943945;29;20027;-89
2021/01/10 00:26:39;;;;;;;26.83;11.13;;;3.50;99.90;;;;;;4927913;29;20060;-90
2021/01/10 00:29:09;;;;;;;25.20;12.07;;;3.60;99.90;;;;;;4926286;29;20067;-89
2021/01/10 00:31:38;;;;;;;22.90;12.15;;;3.60;99.90;;;;;;4910867;29;20508;-89
2021/01/10 00:34:04;;;;;;;26.92;12.73;;;3.60;99.90;;;;;;4948268;29;20032;-89
2021/01/10 00:36:36;;;;;;;26.63;11.75;;;3.60;99.90;;;;;;4947074;29;20019;-89
2021/01/10 00:39:05;;;;;;;22.75;10.80;;;3.40;99.90;;;;;;4929845;29;20245;-89
2021/01/10 00:41:39;;;;;;;20.55;9.85;;;3.40;99.90;;;;;;4928117;29;20522;-89
2021/01/10 00:44:05;;;;;;;23.30;10.93;;;3.40;99.90;;;;;;4941769;28;20027;-89
2021/01/10 00:46:34;;;;;;;22.17;10.25;;;3.50;99.90;;;;;;4961530;28;20055;-93
2021/01/10 00:49:01;;;;;;;21.55;10.15;;;3.50;99.90;;;;;;4944561;28;20015;-89
2021/01/10 00:51:26;;;;;;;19.77;9.48;;;3.50;99.90;;;;;;4944407;29;20111;-89
2021/01/10 00:53:55;;;;;;;20.17;9.88;;;3.50;99.90;;;;;;4938247;29;20492;-89
2021/01/10 00:56:20;;;;;;;24.90;9.52;;;3.50;99.90;;;;;;4920929;29;20458;-90
2021/01/10 00:58:46;;;;;;;22.88;8.48;;;3.40;99.90;;;;;;4961592;28;20047;-89
2021/01/10 01:01:12;;;;;;;19.52;8.75;;;3.40;99.90;;;;;;4945530;28;20016;-88
2021/01/10 01:03:38;;;;;;;21.13;8.75;;;3.50;99.90;;;;;;4945757;28;20016;-94
2021/01/10 01:06:04;;;;;;;19.88;8.43;;;3.50;99.90;;;;;;4945438;28;20024;-88
2021/01/10 01:08:30;;;;;;;23.83;9.55;;;3.50;99.90;;;;;;4945231;28;20040;-89
2021/01/10 01:10:56;;;;;;;14.60;8.77;;;3.60;99.90;;;;;;4961371;28;20055;-89
2021/01/10 01:13:22;;;;;;;20.80;9.30;;;3.60;99.90;;;;;;4943390;29;20020;-89
2021/01/10 01:15:58;;;;;;;20.58;9.68;;;3.60;99.90;;;;;;4927992;29;20027;-89
2021/01/10 01:18:23;;;;;;;16.90;8.93;;;3.60;99.90;;;;;;4927862;29;20036;-88
2021/01/10 01:20:50;;;;;;;18.17;8.82;;;3.40;99.90;;;;;;4927018;29;20358;-89
2021/01/10 01:23:16;;;;;;;22.75;8.27;;;3.40;99.90;;;;;;4926939;29;20075;-90
2021/01/10 01:25:42;;;;;;;16.13;7.47;;;3.40;99.90;;;;;;4929752;29;20019;-90
2021/01/10 01:28:10;;;;;;;24.27;6.55;;;3.50;99.90;;;;;;4923894;29;20351;-89
2021/01/10 01:30:36;;;;;;;23.70;6.30;;;3.50;99.90;;;;;;4921870;29;20118;-90
2021/01/10 01:33:01;;;;;;;19.05;6.72;;;3.60;99.90;;;;;;4921581;29;20454;-89
2021/01/10 01:35:27;;;;;;;16.55;5.00;;;3.70;99.90;;;;;;4921387;29;20024;-89
2021/01/10 01:37:53;;;;;;;17.27;5.15;;;3.80;99.90;;;;;;4921717;29;20462;-89
2021/01/10 01:40:18;;;;;;;11.52;4.70;;;3.90;99.90;;;;;;4921713;29;20036;-89
2021/01/10 01:42:46;;;;;;;11.93;4.47;;;3.90;99.90;;;;;;4921061;29;20048;-90
2021/01/10 01:45:12;;;;;;;9.13;3.97;;;4.00;99.90;;;;;;4921021;29;20040;-89
2021/01/10 01:47:39;;;;;;;11.15;4.28;;;3.90;99.90;;;;;;4937126;29;20031;-90
2021/01/10 01:50:06;;;;;;;10.75;5.20;;;4.00;99.90;;;;;;4937863;29;20030;-90
2021/01/10 01:52:35;;;;;;;11.23;4.38;;;3.90;99.90;;;;;;4920784;29;20043;-89
2021/01/10 01:55:00;;;;;;;15.10;4.85;;;3.90;99.90;;;;;;4920927;29;20027;-90
2021/01/10 01:57:26;;;;;;;14.23;4.15;;;3.90;99.90;;;;;;4920681;29;20381;-90
2021/01/10 01:59:52;;;;;;;10.98;3.70;;;4.00;99.90;;;;;;4920675;29;20446;-89
2021/01/10 02:02:20;;;;;;;16.85;3.90;;;3.90;99.90;;;;;;4920608;29;20066;-88
2021/01/10 02:04:57;;;;;;;9.18;4.03;;;3.90;99.90;;;;;;4938326;29;20042;-90
2021/01/10 02:07:40;;;;;;;8.77;3.20;;;3.80;99.90;;;;;;4925436;29;20028;-91
2021/01/10 02:10:15;;;;;;;7.05;2.30;;;3.80;99.90;;;;;;4940082;29;20035;-91
2021/01/10 02:13:15;;;;;;;6.90;1.90;;;3.80;99.90;;;;;;4920989;29;20024;-90
2021/01/10 02:15:44;;;;;;;14.35;3.15;;;3.90;99.90;;;;;;4922416;29;20020;-90
2021/01/10 02:18:11;;;;;;;9.20;1.98;;;4.00;99.90;;;;;;4927399;29;20044;-90
2021/01/10 02:20:38;;;;;;;5.32;1.95;;;4.00;99.90;;;;;;4934738;29;20028;-88
2021/01/10 02:23:17;;;;;;;8.52;2.20;;;4.00;99.90;;;;;;4931883;29;20038;-88
2021/01/10 02:25:45;;;;;;;5.38;2.40;;;4.10;99.90;;;;;;4924963;29;20024;-89
2021/01/10 02:28:13;;;;;;;11.25;2.15;;;4.00;99.90;;;;;;4920597;29;20032;-88
2021/01/10 02:30:41;;;;;;;7.30;3.10;;;4.10;99.90;;;;;;4925193;29;20031;-88
2021/01/10 02:33:12;;;;;;;5.25;2.45;;;4.10;99.90;;;;;;4932232;29;20110;-88
2021/01/10 02:35:40;;;;;;;14.60;4.07;;;4.00;99.90;;;;;;4925025;29;20107;-88
2021/01/10 02:38:32;;;;;;;9.32;2.10;;;4.00;99.90;;;;;;4924188;29;20032;-89
2021/01/10 02:41:40;;;;;;;10.65;2.92;;;4.10;99.90;;;;;;4921312;29;20038;-88
2021/01/10 02:44:23;;;;;;;7.82;2.15;;;4.10;99.90;;;;;;4920525;29;20043;-88
2021/01/10 02:46:53;;;;;;;6.60;2.35;;;4.10;99.90;;;;;;4920416;29;20115;-89
2021/01/10 02:49:20;;;;;;;11.10;3.33;;;4.00;99.90;;;;;;4920738;29;20035;-88
2021/01/10 02:51:47;;;;;;;5.30;2.20;;;4.00;99.90;;;;;;4920016;29;20523;-89
2021/01/10 02:54:15;;;;;;;11.95;2.30;;;4.00;99.90;;;;;;4920439;29;20118;-88
2021/01/10 02:56:48;;;;;;;11.23;2.28;;;4.10;99.90;;;;;;4936900;29;20087;-88
2021/01/10 02:59:19;;;;;;;6.05;2.45;;;4.10;99.90;;;;;;4920462;29;20355;-88
2021/01/10 03:01:47;;;;;;;10.40;1.90;;;4.10;99.90;;;;;;4920001;29;20043;-88
2021/01/10 03:04:14;;;;;;;7.07;2.05;;;4.10;99.90;;;;;;4936351;29;20031;-88
2021/01/10 03:06:40;;;;;;;8.63;1.70;;;4.10;99.90;;;;;;4919868;29;20054;-88
2021/01/10 03:09:08;;;;;;;6.55;2.20;;;4.10;99.90;;;;;;4937062;29;20082;-88
2021/01/10 03:11:34;;;;;;;11.23;2.28;;;4.10;99.90;;;;;;4919595;29;20055;-88
2021/01/10 03:14:02;;;;;;;7.65;2.05;;;4.20;99.90;;;;;;4936293;29;20510;-89
2021/01/10 03:16:30;;;;;;;9.32;2.53;;;4.20;99.90;;;;;;4936773;29;20415;-88
2021/01/10 03:18:59;;;;;;;7.85;2.10;;;4.20;99.90;;;;;;4919474;29;20035;-88
2021/01/10 03:21:25;;;;;;;8.13;1.80;;;4.20;99.90;;;;;;4919683;29;20035;-88
2021/01/10 03:23:50;;;;;;;7.97;1.70;;;4.10;99.90;;;;;;4920086;29;20458;-89
2021/01/10 03:26:16;;;;;;;7.50;1.88;;;4.10;99.90;;;;;;4919555;29;20377;-88
2021/01/10 03:28:42;;;;;;;10.00;2.10;;;4.10;99.90;;;;;;4919439;29;20031;-89
2021/01/10 03:31:09;;;;;;;11.93;2.83;;;4.10;99.90;;;;;;4919237;29;20024;-89
2021/01/10 03:33:35;;;;;;;9.63;2.40;;;4.10;99.90;;;;;;4919772;29;20458;-88
2021/01/10 03:36:01;;;;;;;8.25;2.70;;;4.10;99.90;;;;;;4919497;29;20030;-89
2021/01/10 03:38:29;;;;;;;5.40;1.85;;;4.10;99.90;;;;;;4936305;29;20530;-89
2021/01/10 03:40:55;;;;;;;13.20;2.55;;;4.20;99.90;;;;;;4905771;29;20032;-89
2021/01/10 03:43:20;;;;;;;10.20;2.25;;;4.20;99.90;;;;;;4923357;29;20390;-89
2021/01/10 03:45:46;;;;;;;13.18;1.80;;;4.20;99.90;;;;;;4907448;29;20122;-88
2021/01/10 03:48:12;;;;;;;7.18;2.65;;;4.20;99.90;;;;;;4923162;29;20060;-89
2021/01/10 03:50:37;;;;;;;7.35;1.92;;;4.30;99.90;;;;;;4923487;29;20030;-88
2021/01/10 03:53:03;;;;;;;14.20;2.03;;;4.30;99.90;;;;;;4940064;29;20031;-88
2021/01/10 03:55:29;;;;;;;5.45;2.25;;;4.30;99.90;;;;;;4922895;29;20028;-89
2021/01/10 03:57:57;;;;;;;10.00;1.90;;;4.20;99.90;;;;;;4939974;29;20016;-88
2021/01/10 04:00:25;;;;;;;7.13;2.50;;;4.20;99.90;;;;;;4922872;29;20370;-88
2021/01/10 04:02:51;;;;;;;8.77;1.90;;;4.20;99.90;;;;;;4922960;29;20031;-92
2021/01/10 04:05:16;;;;;;;8.30;2.00;;;4.20;99.90;;;;;;4922969;29;20474;-88
2021/01/10 04:07:44;;;;;;;8.40;2.38;;;4.20;99.90;;;;;;4922787;29;20059;-88
2021/01/10 04:10:10;;;;;;;8.15;1.92;;;4.20;99.90;;;;;;4922486;29;20035;-89
2021/01/10 04:12:36;;;;;;;7.55;2.83;;;4.20;99.90;;;;;;4922734;29;20406;-89
2021/01/10 04:15:02;;;;;;;8.55;2.30;;;4.20;99.90;;;;;;4922562;29;20032;-89
2021/01/10 04:17:29;;;;;;;8.95;2.50;;;4.20;99.90;;;;;;4922585;29;20027;-89
2021/01/10 04:19:57;;;;;;;8.80;2.05;;;4.20;99.90;;;;;;4939433;29;20024;-88
2021/01/10 04:22:23;;;;;;;14.93;3.10;;;4.30;99.90;;;;;;4923122;29;20024;-88
2021/01/10 04:24:51;;;;;;;5.18;2.00;;;4.20;99.90;;;;;;4922803;29;20023;-90
2021/01/10 04:27:17;;;;;;;10.13;2.20;;;4.20;99.90;;;;;;4923016;29;20032;-90
2021/01/10 04:29:42;;;;;;;8.85;2.10;;;4.30;99.90;;;;;;4922953;29;20036;-91
2021/01/10 04:32:08;;;;;;;11.80;2.35;;;4.30;99.90;;;;;;4922508;29;20031;-89
2021/01/10 04:34:34;;;;;;;9.55;2.40;;;4.40;99.90;;;;;;4922238;29;20453;-89
2021/01/10 04:37:00;;;;;;;5.72;1.90;;;4.40;99.90;;;;;;4939506;29;20031;-90
2021/01/10 04:39:26;;;;;;;16.58;2.92;;;4.40;99.90;;;;;;4938286;29;20392;-90
2021/01/10 04:41:53;;;;;;;7.68;1.77;;;4.40;99.90;;;;;;4922272;29;20054;-90
2021/01/10 04:44:19;;;;;;;11.60;1.90;;;4.40;99.90;;;;;;4927155;29;20151;-90
2021/01/10 04:46:47;;;;;;;5.32;1.95;;;4.30;99.90;;;;;;4933562;29;20118;-89
2021/01/10 04:49:13;;;;;;;7.13;2.10;;;4.20;99.90;;;;;;4939798;29;20510;-89
2021/01/10 04:51:42;;;;;;;12.68;2.78;;;4.30;99.90;;;;;;4938618;29;20031;-90
2021/01/10 04:54:10;;;;;;;7.75;2.00;;;4.40;99.90;;;;;;4922293;29;20028;-90
2021/01/10 04:56:37;;;;;;;7.25;1.90;;;4.30;99.90;;;;;;4922003;29;20038;-89
2021/01/10 04:59:04;;;;;;;7.03;2.20;;;4.30;99.90;;;;;;4938616;29;20040;-89
2021/01/10 05:01:46;;;;;;;11.88;3.85;;;4.40;99.90;;;;;;4922183;29;20024;-89
2021/01/10 05:04:16;;;;;;;9.30;2.53;;;4.40;99.90;;;;;;4920908;29;20031;-89
2021/01/10 05:06:41;;;;;;;9.60;2.05;;;4.50;99.90;;;;;;4921863;29;20051;-90
2021/01/10 05:09:07;;;;;;;15.32;3.00;;;4.50;99.90;;;;;;4921670;29;20475;-89
2021/01/10 05:11:36;;;;;;;7.75;2.38;;;4.60;99.90;;;;;;4921961;29;20040;-90
2021/01/10 05:14:05;;;;;;;11.77;2.63;;;4.60;99.90;;;;;;4921738;29;20028;-89
2021/01/10 05:16:35;;;;;;;9.52;2.75;;;4.60;99.90;;;;;;4921792;29;20517;-89
2021/01/10 05:19:02;;;;;;;7.32;1.95;;;4.50;99.90;;;;;;4921690;29;20087;-90
2021/01/10 05:21:28;;;;;;;6.53;2.22;;;4.50;99.90;;;;;;4921723;29;20345;-89
2021/01/10 05:23:56;;;;;;;11.95;2.20;;;4.50;99.90;;;;;;4921359;29;20031;-90
2021/01/10 05:26:39;;;;;;;14.07;2.45;;;4.30;99.90;;;;;;4922968;29;20075;-90
2021/01/10 05:29:09;;;;;;;10.57;2.42;;;4.40;99.90;;;;;;4921568;29;20162;-90
2021/01/10 05:31:40;;;;;;;10.90;2.60;;;4.50;99.90;;;;;;4921740;29;20039;-89
2021/01/10 05:34:09;;;;;;;11.35;2.78;;;4.50;99.90;;;;;;4921335;29;20497;-90
2021/01/10 05:36:37;;;;;;;9.00;2.35;;;4.30;99.90;;;;;;4938388;29;20024;-89
2021/01/10 05:39:21;;;;;;;7.55;2.67;;;4.30;99.90;;;;;;4921028;29;20123;-90
2021/01/10 05:41:56;;;;;;;6.38;2.33;;;4.40;99.90;;;;;;4937960;29;20054;-89
2021/01/10 05:44:28;;;;;;;;;;;4.40;99.90;;;;;;4938616;29;20031;-90
2021/01/10 05:47:03;;;;;;;7.03;2.00;;;4.40;99.90;;;;;;4921173;29;19950;-90
2021/01/10 05:49:29;;;;;;;6.50;2.10;;;4.40;99.90;;;;;;4921174;29;20028;-90
2021/01/10 05:52:06;;;;;;;9.95;2.72;;;4.50;99.90;;;;;;4921295;29;20038;-89
2021/01/10 05:54:39;;;;;;;10.20;2.30;;;4.40;99.90;;;;;;4921201;29;20114;-89
2021/01/10 05:57:32;;;;;;;10.32;2.17;;;4.40;99.90;;;;;;4921102;29;20035;-89
2021/01/10 05:59:58;;;;;;;11.82;2.40;;;4.40;99.90;;;;;;4920818;29;20050;-88
2021/01/10 06:02:31;;;;;;;12.00;3.05;;;4.30;99.90;;;;;;4931853;29;20040;-89
2021/01/10 06:05:16;;;;;;;6.80;2.65;;;4.40;99.90;;;;;;4937327;29;20402;-90
2021/01/10 06:07:43;;;;;;;11.68;3.65;;;4.20;99.90;;;;;;4931669;29;20127;-88
2021/01/10 06:10:10;;;;;;;7.53;2.08;;;4.20;99.90;;;;;;4904821;29;20038;-89
2021/01/10 06:12:37;;;;;;;6.13;2.50;;;4.30;99.90;;;;;;4920395;29;20027;-88
2021/01/10 06:15:17;;;;;;;7.57;2.50;;;4.40;99.90;;;;;;4920520;29;20103;-90
2021/01/10 06:17:45;;;;;;;11.65;2.85;;;4.50;99.90;;;;;;4921273;29;20461;-90
2021/01/10 06:20:27;;;;;;;7.05;2.63;;;4.40;99.90;;;;;;4921994;29;20032;-90
2021/01/10 06:22:55;;;;;;;11.30;2.83;;;4.50;99.90;;;;;;4921059;29;20354;-90
2021/01/10 06:25:23;;;;;;;12.57;3.17;;;4.50;99.90;;;;;;4937547;29;20031;-90
2021/01/10 06:28:13;;;;;;;11.80;3.85;;;4.50;99.90;;;;;;4920664;29;20032;-90
2021/01/10 06:30:47;;;;;;;13.07;4.32;;;4.40;99.90;;;;;;4899946;29;20079;-90
2021/01/10 06:33:20;;;;;;;12.20;5.93;;;4.40;99.90;;;;;;4920446;29;20024;-90
2021/01/10 06:35:50;;;;;;;14.98;5.95;;;4.40;99.90;;;;;;4920805;29;20470;-90
2021/01/10 06:38:22;;;;;;;17.15;6.95;;;4.40;99.90;;;;;;4920058;29;20032;-89
2021/01/10 06:41:06;;;;;;;16.17;6.72;;;4.40;99.90;;;;;;4920248;29;20118;-90
2021/01/10 06:43:37;;;;;;;19.30;8.00;;;4.30;99.90;;;;;;4920005;29;20047;-88
2021/01/10 06:46:06;;;;;;;17.13;7.97;;;4.20;99.90;;;;;;4919965;29;20130;-89
2021/01/10 06:48:32;;;;;;;23.10;7.75;;;4.30;99.90;;;;;;4920091;29;20060;-89
2021/01/10 06:51:01;;;;;;;15.48;7.93;;;4.20;99.90;;;;;;4919983;29;20087;-88
2021/01/10 06:53:27;;;;;;;21.95;8.50;;;4.20;99.90;;;;;;4919808;29;20075;-89
2021/01/10 06:55:53;;;;;;;18.45;8.40;;;4.20;99.90;;;;;;4937201;29;20031;-90
2021/01/10 06:58:21;;;;;;;24.52;8.27;;;4.30;99.90;;;;;;4919766;29;20497;-89
2021/01/10 07:00:58;;;;;;;13.90;7.55;;;4.30;99.90;;;;;;4920060;29;20035;-90
2021/01/10 07:03:25;;;;;;;16.50;7.90;;;4.30;99.90;;;;;;4920179;29;20023;-90
2021/01/10 07:05:57;;;;;;;15.80;7.03;;;4.30;99.90;;;;;;4910516;29;20028;-89
2021/01/10 07:08:43;;;;;;;15.90;8.05;;;4.30;99.90;;;;;;4932445;29;20035;-91
2021/01/10 07:11:21;;;;;;;16.85;8.00;;;4.30;99.90;;;;;;4943745;29;20034;-90
2021/01/10 07:13:56;;;;;;;15.55;8.57;;;4.20;99.90;;;;;;4927903;29;20046;-90
2021/01/10 07:16:25;;;;;;;;;;;4.20;99.90;;;;;;4919658;29;20023;-90
2021/01/10 07:18:56;;;;;;;22.13;9.55;;;4.20;99.90;;;;;;4920024;29;19954;-88
2021/01/10 07:21:51;;;;;;;15.13;8.13;;;4.30;99.90;;;;;;4919452;29;20020;-87
2021/01/10 07:24:22;;;;;;;19.77;7.60;;;4.30;99.90;;;;;;4935548;29;20036;-89
2021/01/10 07:26:55;;;;;;;18.50;7.68;;;4.20;99.90;;;;;;4920037;29;20470;-89
2021/01/10 07:29:44;;;;;;;15.40;7.50;;;4.30;99.90;;;;;;4919242;29;20032;-88
2021/01/10 07:32:16;;;;;;;14.98;8.02;;;4.30;99.90;;;;;;4927296;29;20028;-88
2021/01/10 07:34:45;;;;;;;13.63;7.28;;;4.40;99.90;;;;;;4943476;29;20023;-88
2021/01/10 07:37:26;;;;;;;16.67;7.50;;;4.30;99.90;;;;;;4937725;29;20035;-89
2021/01/10 07:40:07;;;;;;;12.18;7.43;;;4.30;99.90;;;;;;4921133;29;20028;-90
2021/01/10 07:42:42;;;;;;;13.05;7.72;;;4.20;99.90;;;;;;4919996;29;20039;-89
2021/01/10 07:45:17;;;;;;;;;;;4.20;99.90;;;;;;4920267;29;20031;-91
2021/01/10 07:47:50;;;;;;;12.77;7.28;;;4.20;99.90;;;;;;4920488;29;19903;-90
2021/01/10 07:50:16;;;;;;;20.80;7.32;;;4.20;99.90;;;;;;4919866;29;20040;-94
2021/01/10 07:52:49;;;;;;;12.70;7.40;;;4.20;99.90;;;;;;4921276;29;20300;-89
2021/01/10 07:55:20;;;;;;;16.15;8.38;;;4.20;99.90;;;;;;4936863;29;20028;-92
2021/01/10 07:58:02;;;;;;;14.90;7.10;;;4.10;99.90;;;;;;4920951;29;20369;-91
2021/01/10 08:00:33;;;;;;;11.80;7.57;;;4.10;99.90;;;;;;4937428;29;20035;-89
2021/01/10 08:03:09;;;;;;;16.35;7.75;;;4.20;99.90;;;;;;4919926;29;20047;-89
2021/01/10 08:05:54;;;;;;;18.67;8.45;;;4.10;99.90;;;;;;4919923;29;20046;-89
2021/01/10 08:08:20;;;;;;;13.02;7.57;;;4.10;99.90;;;;;;4919669;29;20478;-88
2021/01/10 08:10:54;;;;;;;9.68;7.22;;;4.10;99.90;;;;;;4901910;29;20032;-89
2021/01/10 08:13:26;;;;;;;16.90;7.27;;;4.10;99.90;;;;;;4900893;29;20176;-88
2021/01/10 08:15:55;;;;;;;14.52;7.05;;;4.00;99.90;;;;;;4918160;29;20256;-89
2021/01/10 08:18:24;;;;;;;15.52;7.55;;;4.00;99.90;;;;;;4900195;29;20036;-90
2021/01/10 08:20:56;;;;;;;14.52;6.85;;;4.10;99.90;;;;;;4901321;29;20119;-89
2021/01/10 08:23:24;;;;;;;16.70;8.32;;;4.10;99.90;;;;;;4901310;29;20545;-90
2021/01/10 08:26:00;;;;;;;10.48;6.03;;;4.10;99.90;;;;;;4917982;29;20052;-89
2021/01/10 08:28:29;;;;;;;11.50;6.10;;;4.20;99.90;;;;;;4921602;29;20032;-90
2021/01/10 08:31:09;;;;;;;12.10;6.65;;;4.10;99.90;;;;;;4904397;29;20030;-89
2021/01/10 08:33:35;;;;;;;12.55;7.88;;;4.20;99.90;;;;;;4904715;29;20040;-89
2021/01/10 08:36:12;;;;;;;12.43;6.57;;;4.20;99.90;;;;;;4904384;29;20028;-89
2021/01/10 08:39:05;;;;;;;12.68;6.13;;;4.10;99.90;;;;;;4904789;29;20039;-89
2021/01/10 08:41:35;;;;;;;14.15;6.50;;;4.00;99.90;;;;;;4901933;29;20546;-89
2021/01/10 08:44:04;;;;;;;11.75;7.45;;;4.10;99.90;;;;;;4904165;29;20458;-89
2021/01/10 08:46:32;;;;;;;12.07;6.38;;;4.20;99.90;;;;;;4905152;29;20110;-89
2021/01/10 08:48:58;;;;;;;13.35;6.00;;;4.30;99.90;;;;;;4905116;29;20526;-89
2021/01/10 08:51:34;;;;;;;14.20;6.05;;;4.40;99.90;;;;;;4904710;29;20028;-90
2021/01/10 08:54:08;;;;;;;11.32;6.63;;;4.30;99.90;;;;;;4905203;29;20024;-89
2021/01/10 08:56:35;;;;;;;18.08;6.85;;;4.40;99.90;;;;;;4905023;29;20051;-89
2021/01/10 08:59:01;;;;;;;13.27;6.30;;;4.50;99.90;;;;;;4922072;29;20059;-89
2021/01/10 09:01:28;;;;;;;14.20;7.00;;;4.50;99.90;;;;;;4922821;29;20087;-90
2021/01/10 09:04:04;;;;;;;10.68;7.03;;;4.50;99.90;;;;;;4923468;29;20132;-89
2021/01/10 09:06:40;;;;;;;16.02;7.35;;;4.60;99.90;;;;;;4923478;29;20499;-89
2021/01/10 09:09:24;;;;;;;17.60;7.88;;;4.60;99.90;;;;;;4907559;29;20165;-89
2021/01/10 09:12:20;;;;;;;14.30;6.88;;;4.70;99.90;;;;;;4929823;29;20075;-88
2021/01/10 09:14:50;;;;;;;13.75;7.15;;;4.60;99.90;;;;;;4910472;29;20046;-88
2021/01/10 09:17:24;;;;;;;14.23;7.72;;;4.70;99.90;;;;;;4933880;29;20021;-89
2021/01/10 09:19:54;;;;;;;15.25;7.28;;;4.80;99.90;;;;;;4922386;29;20031;-90
2021/01/10 09:22:26;;;;;;;13.23;7.05;;;4.90;99.90;;;;;;4924813;29;20052;-88
2021/01/10 09:24:52;;;;;;;14.48;7.03;;;4.90;99.90;;;;;;4941431;29;20040;-90
2021/01/10 09:27:17;;;;;;;16.25;7.38;;;5.00;99.90;;;;;;4925322;29;20035;-88
2021/01/10 09:29:46;;;;;;;13.05;7.05;;;5.00;99.90;;;;;;4921643;29;20020;-88
2021/01/10 09:32:21;;;;;;;17.83;7.40;;;5.00;99.90;;;;;;4926200;29;20016;-88
2021/01/10 09:34:55;;;;;;;14.60;6.43;;;5.00;99.90;;;;;;4941810;29;20028;-87
2021/01/10 09:37:29;;;;;;;12.40;6.20;;;5.10;99.90;;;;;;4921678;29;20024;-89
2021/01/10 09:40:06;;;;;;;11.93;5.82;;;5.20;99.90;;;;;;4933271;29;20025;-87
2021/01/10 09:42:50;;;;;;;11.73;6.28;;;5.10;99.90;;;;;;4919884;29;20056;-88
2021/01/10 09:45:31;;;;;;;17.60;6.97;;;5.20;99.90;;;;;;4908141;29;20025;-87
2021/01/10 09:47:57;;;;;;;16.40;7.47;;;5.30;99.90;;;;;;4941829;29;20057;-92
2021/01/10 09:50:23;;;;;;;11.63;7.20;;;5.10;99.90;;;;;;4925770;29;20028;-88
2021/01/10 09:52:53;;;;;;;13.43;6.97;;;5.20;99.90;;;;;;4922872;29;20024;-89
2021/01/10 09:55:20;;;;;;;15.13;7.90;;;5.30;99.90;;;;;;4922071;29;20041;-88
2021/01/10 09:57:46;;;;;;;14.65;7.70;;;5.30;99.90;;;;;;4921322;29;20035;-88
2021/01/10 10:00:15;;;;;;;17.50;7.75;;;5.40;99.90;;;;;;4938819;29;20043;-88
2021/01/10 10:02:42;;;;;;;16.27;7.57;;;5.40;99.90;;;;;;4919624;29;20024;-89
2021/01/10 10:05:13;;;;;;;13.07;7.35;;;5.50;99.90;;;;;;4912103;29;20028;-89
2021/01/10 10:07:48;;;;;;;12.35;7.75;;;5.50;99.90;;;;;;4936222;29;20028;-89
2021/01/10 10:10:26;;;;;;;14.07;7.88;;;5.60;99.90;;;;;;4907477;29;20123;-89
2021/01/10 10:12:58;;;;;;;13.57;8.02;;;5.60;99.90;;;;;;4920717;29;20080;-89
2021/01/10 10:15:49;;;;;;;13.98;7.47;;;5.50;99.90;;;;;;4902649;29;20075;-88
2021/01/10 10:18:23;;;;;;;14.15;7.72;;;5.50;99.90;;;;;;4903442;29;20031;-89
2021/01/10 10:20:49;;;;;;;13.23;7.05;;;5.40;99.90;;;;;;4901683;29;20019;-89
2021/01/10 10:23:16;;;;;;;20.58;7.28;;;5.50;99.90;;;;;;4917557;29;20024;-88
2021/01/10 10:25:46;;;;;;;14.10;7.93;;;5.50;99.90;;;;;;4918545;29;20115;-88
2021/01/10 10:28:14;;;;;;;16.02;7.38;;;5.60;99.90;;;;;;4901619;29;20356;-88
2021/01/10 10:30:46;;;;;;;14.27;7.95;;;5.50;99.90;;;;;;4917398;29;20033;-89
2021/01/10 10:33:12;;;;;;;19.48;8.48;;;5.50;99.90;;;;;;4918767;29;20167;-88
2021/01/10 10:35:41;;;;;;;15.73;7.90;;;5.40;99.90;;;;;;4901345;29;20028;-87
2021/01/10 10:38:06;;;;;;;17.67;8.48;;;5.40;99.90;;;;;;4901653;29;20119;-87
2021/01/10 10:40:33;;;;;;;12.55;7.30;;;5.40;99.90;;;;;;4917400;29;20127;-87
2021/01/10 10:42:59;;;;;;;13.75;7.78;;;5.30;99.90;;;;;;4918263;29;20060;-87
2021/01/10 10:45:25;;;;;;;17.05;7.97;;;5.20;99.90;;;;;;4901581;29;20016;-87
2021/01/10 10:47:51;;;;;;;12.85;7.10;;;5.20;99.90;;;;;;4917845;29;20411;-88
2021/01/10 10:50:18;;;;;;;20.27;8.48;;;5.20;99.90;;;;;;4917761;29;20032;-88
2021/01/10 10:52:48;;;;;;;17.52;9.07;;;5.30;99.90;;;;;;4919385;29;20119;-88
2021/01/10 10:55:18;;;;;;;15.13;8.60;;;5.30;99.90;;;;;;4898983;29;20036;-88
2021/01/10 10:57:44;;;;;;;21.52;8.88;;;5.30;99.90;;;;;;4910752;29;20031;-88
2021/01/10 11:00:14;;;;;;;21.77;9.55;;;5.40;99.90;;;;;;4904641;29;20032;-88
2021/01/10 11:02:40;;;;;;;17.63;8.68;;;5.40;99.90;;;;;;4903910;29;20024;-90
2021/01/10 11:05:09;;;;;;;22.02;9.43;;;5.40;99.90;;;;;;4916428;29;20031;-89
2021/01/10 11:07:38;;;;;;;17.52;9.32;;;5.40;99.90;;;;;;4900346;29;20027;-88
2021/01/10 11:10:07;;;;;;;16.23;10.20;;;5.50;99.90;;;;;;4900967;29;20039;-88
2021/01/10 11:12:36;;;;;;;19.38;9.88;;;5.50;99.90;;;;;;4918005;29;20025;-89
2021/01/10 11:15:04;;;;;;;17.17;9.48;;;5.40;99.90;;;;;;4917784;29;20032;-87
2021/01/10 11:17:29;;;;;;;19.55;10.73;;;5.50;99.90;;;;;;4900580;29;20462;-88
2021/01/10 11:19:58;;;;;;;17.80;9.95;;;5.60;99.90;;;;;;4900418;29;20051;-88
2021/01/10 11:22:29;;;;;;;15.50;10.00;;;5.50;99.90;;;;;;4900855;29;20488;-88
2021/01/10 11:25:02;;;;;;;19.17;9.57;;;5.60;99.90;;;;;;4917624;29;20028;-87
2021/01/10 11:27:31;;;;;;;18.13;9.15;;;5.70;99.90;;;;;;4900636;29;20386;-88
2021/01/10 11:29:57;;;;;;;18.17;9.43;;;5.70;99.90;;;;;;4899921;29;20032;-87
2021/01/10 11:32:23;;;;;;;16.58;9.20;;;5.70;99.90;;;;;;4900955;29;20024;-87
2021/01/10 11:34:48;;;;;;;21.75;10.25;;;5.60;99.90;;;;;;4900909;29;20116;-88
2021/01/10 11:37:14;;;;;;;17.85;9.90;;;5.70;99.90;;;;;;4900377;29;20080;-87
2021/01/10 11:39:42;;;;;;;18.88;10.45;;;5.60;99.90;;;;;;4900771;29;20035;-88
2021/01/10 11:42:13;;;;;;;23.15;13.77;;;5.60;99.90;;;;;;4917368;29;20048;-88
2021/01/10 11:44:41;;;;;;;16.38;9.85;;;5.60;99.90;;;;;;4900322;29;20028;-89
2021/01/10 11:47:07;;;;;;;22.67;11.90;;;5.60;99.90;;;;;;4910147;29;20032;-88
2021/01/10 11:49:32;;;;;;;20.30;11.80;;;5.60;99.90;;;;;;4901383;29;20034;-86
2021/01/10 11:51:58;;;;;;;24.67;11.15;;;5.60;99.90;;;;;;4905683;29;20020;-88
2021/01/10 11:54:24;;;;;;;19.88;11.63;;;5.60;99.90;;;;;;4904583;29;20028;-88
2021/01/10 11:56:50;;;;;;;18.92;12.07;;;5.60;99.90;;;;;;4919693;29;20061;-89
2021/01/10 11:59:16;;;;;;;18.75;12.05;;;5.60;99.90;;;;;;4917286;29;20051;-88
2021/01/10 12:01:44;;;;;;;20.05;12.30;;;5.60;99.90;;;;;;4908105;29;20024;-88
2021/01/10 12:04:11;;;;;;;22.20;12.63;;;5.70;99.90;;;;;;4905957;29;20043;-87
2021/01/10 12:06:40;;;;;;;20.25;12.32;;;5.60;99.90;;;;;;4904738;29;20024;-87
2021/01/10 12:09:13;;;;;;;19.55;12.00;;;5.50;99.90;;;;;;4905013;29;20035;-88
2021/01/10 12:11:40;;;;;;;19.60;12.63;;;5.40;99.90;;;;;;4905760;29;20028;-89
2021/01/10 12:14:06;;;;;;;24.90;12.75;;;5.40;99.90;;;;;;4905402;29;20061;-88
2021/01/10 12:16:32;;;;;;;22.98;12.50;;;5.40;99.90;;;;;;4921985;29;20028;-88
2021/01/10 12:18:57;;;;;;;24.73;12.95;;;5.40;99.90;;;;;;4887737;29;20088;-88
2021/01/10 12:21:23;;;;;;;20.63;12.68;;;5.50;99.90;;;;;;4905396;29;20029;-87
2021/01/10 12:23:49;;;;;;;19.75;12.23;;;5.50;99.90;;;;;;4904862;29;20382;-88
2021/01/10 12:26:17;;;;;;;27.65;13.70;;;5.50;99.90;;;;;;4903375;29;20127;-87
2021/01/10 12:28:45;;;;;;;23.98;13.57;;;5.50;99.90;;;;;;4916523;29;20043;-88
2021/01/10 12:31:11;;;;;;;21.67;13.10;;;5.50;99.90;;;;;;4913132;29;20028;-87
2021/01/10 12:33:38;;;;;;;20.60;11.57;;;5.50;99.90;;;;;;4912936;29;20056;-87
2021/01/10 12:36:06;;;;;;;20.95;12.88;;;5.50;99.90;;;;;;4912266;29;20031;-88
2021/01/10 12:38:34;;;;;;;27.65;11.90;;;5.60;99.90;;;;;;4910636;29;20028;-88
2021/01/10 12:41:00;;;;;;;19.75;12.10;;;5.60;99.90;;;;;;4903254;29;20462;-87
2021/01/10 12:43:33;;;;;;;19.92;10.68;;;5.70;99.90;;;;;;4903467;29;20051;-87
2021/01/10 12:46:01;;;;;;;25.65;12.68;;;5.70;99.90;;;;;;4903368;29;20032;-90
2021/01/10 12:48:26;;;;;;;17.55;11.65;;;5.50;99.90;;;;;;4902934;29;20059;-87
2021/01/10 12:50:53;;;;;;;21.05;12.02;;;5.60;99.90;;;;;;4903531;29;20092;-88
2021/01/10 12:53:24;;;;;;;18.92;12.13;;;5.60;99.90;;;;;;4902730;29;20034;-87
2021/01/10 12:55:51;;;;;;;19.30;10.93;;;5.60;99.90;;;;;;4903238;29;20020;-87
2021/01/10 12:58:20;;;;;;;16.50;9.90;;;5.50;99.90;;;;;;4901996;29;20038;-87
2021/01/10 13:00:46;;;;;;;21.30;10.90;;;5.40;99.90;;;;;;4902822;29;20024;-86
2021/01/10 13:03:12;;;;;;;16.38;9.88;;;5.40;99.90;;;;;;4919584;29;20123;-87